sensor_id;sensor_type;location;lat;lon;timestamp;pressure;altitude;pressure_sealevel;temperature;humidity
40948;BME280;49382;-25.924;28.194;2023-05-14T00:01:50;85549.69;;;20.77;37.60
40948;BME280;49382;-25.924;28.194;2023-05-14T00:04:15;85551.06;;;19.65;39.23
40948;BME280;49382;-25.924;28.194;2023-05-14T00:06:40;85542.80;;;20.46;38.28
40948;BME280;49382;-25.924;28.194;2023-05-14T00:09:06;85540.44;;;20.78;38.14
40948;BME280;49382;-25.924;28.194;2023-05-14T00:11:31;85537.09;;;20.40;38.54
40948;BME280;49382;-25.924;28.194;2023-05-14T00:13:57;85527.50;;;20.24;39.25
40948;BME280;49382;-25.924;28.194;2023-05-14T00:16:22;85528.44;;;20.64;38.94
40948;BME280;49382;-25.924;28.194;2023-05-14T00:18:48;85524.43;;;20.39;39.00
40948;BME280;49382;-25.924;28.194;2023-05-14T00:21:13;85522.54;;;20.34;38.92
40948;BME280;49382;-25.924;28.194;2023-05-14T00:23:38;85510.66;;;20.12;40.15
40948;BME280;49382;-25.924;28.194;2023-05-14T00:26:03;85500.01;;;19.30;41.48
40948;BME280;49382;-25.924;28.194;2023-05-14T00:28:28;85469.78;;;19.15;42.09
40948;BME280;49382;-25.924;28.194;2023-05-14T00:30:54;85439.37;;;18.91;42.44
40948;BME280;49382;-25.924;28.194;2023-05-14T00:33:19;85427.84;;;19.31;41.60
40948;BME280;49382;-25.924;28.194;2023-05-14T00:35:44;85435.53;;;19.38;41.07
40948;BME280;49382;-25.924;28.194;2023-05-14T00:38:09;85422.78;;;18.13;42.99
40948;BME280;49382;-25.924;28.194;2023-05-14T00:40:34;85410.37;;;20.06;40.29
40948;BME280;49382;-25.924;28.194;2023-05-14T00:42:59;85399.51;;;19.67;39.89
40948;BME280;49382;-25.924;28.194;2023-05-14T00:45:25;85385.99;;;19.77;40.48
40948;BME280;49382;-25.924;28.194;2023-05-14T00:47:50;85387.27;;;20.26;39.12
40948;BME280;49382;-25.924;28.194;2023-05-14T00:50:16;85371.76;;;20.17;39.17
40948;BME280;49382;-25.924;28.194;2023-05-14T00:52:40;85367.20;;;20.51;38.59
40948;BME280;49382;-25.924;28.194;2023-05-14T00:55:07;85361.86;;;20.58;38.52
40948;BME280;49382;-25.924;28.194;2023-05-14T00:57:30;85363.89;;;20.82;38.61
40948;BME280;49382;-25.924;28.194;2023-05-14T00:59:56;85361.47;;;20.26;38.82
40948;BME280;49382;-25.924;28.194;2023-05-14T01:02:21;85368.60;;;20.43;38.14
40948;BME280;49382;-25.924;28.194;2023-05-14T01:04:46;85385.26;;;19.64;39.66
40948;BME280;49382;-25.924;28.194;2023-05-14T01:07:19;85393.22;;;19.28;40.82
40948;BME280;49382;-25.924;28.194;2023-05-14T01:09:43;85402.12;;;18.47;42.30
40948;BME280;49382;-25.924;28.194;2023-05-14T01:12:10;85402.38;;;18.21;43.08
40948;BME280;49382;-25.924;28.194;2023-05-14T01:14:35;85400.58;;;18.67;42.00
40948;BME280;49382;-25.924;28.194;2023-05-14T01:16:57;85401.90;;;19.17;41.25
40948;BME280;49382;-25.924;28.194;2023-05-14T01:19:29;85404.50;;;19.40;41.21
40948;BME280;49382;-25.924;28.194;2023-05-14T01:21:43;85403.05;;;19.27;41.19
40948;BME280;49382;-25.924;28.194;2023-05-14T01:24:09;85404.01;;;19.57;40.82
40948;BME280;49382;-25.924;28.194;2023-05-14T01:26:35;85407.56;;;19.24;41.25
40948;BME280;49382;-25.924;28.194;2023-05-14T01:29:11;85417.06;;;19.81;40.49
40948;BME280;49382;-25.924;28.194;2023-05-14T01:31:26;85420.17;;;19.96;39.69
40948;BME280;49382;-25.924;28.194;2023-05-14T01:33:52;85423.24;;;20.34;39.43
40948;BME280;49382;-25.924;28.194;2023-05-14T01:36:16;85426.63;;;18.58;41.31
40948;BME280;49382;-25.924;28.194;2023-05-14T01:38:41;85426.99;;;19.51;40.25
40948;BME280;49382;-25.924;28.194;2023-05-14T01:41:07;85437.75;;;19.04;40.50
40948;BME280;49382;-25.924;28.194;2023-05-14T01:43:32;85442.89;;;20.38;39.46
40948;BME280;49382;-25.924;28.194;2023-05-14T01:45:57;85451.40;;;20.35;38.66
40948;BME280;49382;-25.924;28.194;2023-05-14T01:48:23;85461.30;;;19.60;40.10
40948;BME280;49382;-25.924;28.194;2023-05-14T01:50:48;85471.53;;;20.65;38.61
40948;BME280;49382;-25.924;28.194;2023-05-14T01:53:13;85487.29;;;20.56;38.41
40948;BME280;49382;-25.924;28.194;2023-05-14T01:55:39;85500.61;;;19.32;40.10
40948;BME280;49382;-25.924;28.194;2023-05-14T01:58:05;85510.95;;;20.79;38.53
40948;BME280;49382;-25.924;28.194;2023-05-14T02:00:30;85531.70;;;20.48;37.93
40948;BME280;49382;-25.924;28.194;2023-05-14T02:02:55;85545.72;;;20.78;37.56
40948;BME280;49382;-25.924;28.194;2023-05-14T02:05:20;85550.61;;;21.20;37.16
40948;BME280;49382;-25.924;28.194;2023-05-14T02:07:45;85551.60;;;21.21;37.71
40948;BME280;49382;-25.924;28.194;2023-05-14T02:10:11;85548.80;;;21.54;37.92
40948;BME280;49382;-25.924;28.194;2023-05-14T02:12:36;85544.88;;;21.36;38.01
40948;BME280;49382;-25.924;28.194;2023-05-14T02:15:01;85548.05;;;21.18;38.21
40948;BME280;49382;-25.924;28.194;2023-05-14T02:17:27;85548.15;;;21.12;39.18
40948;BME280;49382;-25.924;28.194;2023-05-14T02:19:52;85547.67;;;20.74;39.91
40948;BME280;49382;-25.924;28.194;2023-05-14T02:22:18;85546.75;;;20.99;39.29
40948;BME280;49382;-25.924;28.194;2023-05-14T02:24:43;85546.01;;;20.85;39.26
40948;BME280;49382;-25.924;28.194;2023-05-14T02:27:08;85546.31;;;21.22;39.27
40948;BME280;49382;-25.924;28.194;2023-05-14T02:29:33;85542.72;;;21.05;39.14
40948;BME280;49382;-25.924;28.194;2023-05-14T02:31:59;85539.32;;;21.14;39.22
40948;BME280;49382;-25.924;28.194;2023-05-14T02:34:24;85538.09;;;21.59;39.20
40948;BME280;49382;-25.924;28.194;2023-05-14T02:36:49;85537.88;;;21.29;39.00
40948;BME280;49382;-25.924;28.194;2023-05-14T02:39:15;85533.95;;;20.48;39.87
40948;BME280;49382;-25.924;28.194;2023-05-14T02:41:40;85535.23;;;21.43;38.75
40948;BME280;49382;-25.924;28.194;2023-05-14T02:44:06;85536.94;;;21.66;38.86
40948;BME280;49382;-25.924;28.194;2023-05-14T02:46:32;85539.63;;;21.18;39.57
40948;BME280;49382;-25.924;28.194;2023-05-14T02:48:57;85539.07;;;20.79;39.56
40948;BME280;49382;-25.924;28.194;2023-05-14T02:51:22;85539.17;;;20.60;40.75
40948;BME280;49382;-25.924;28.194;2023-05-14T02:53:48;85539.55;;;20.09;41.17
40948;BME280;49382;-25.924;28.194;2023-05-14T02:56:14;85544.59;;;20.19;41.35
40948;BME280;49382;-25.924;28.194;2023-05-14T02:58:39;85543.37;;;20.46;41.09
40948;BME280;49382;-25.924;28.194;2023-05-14T03:01:04;85537.97;;;20.50;40.19
40948;BME280;49382;-25.924;28.194;2023-05-14T03:03:30;85535.80;;;20.11;40.74
40948;BME280;49382;-25.924;28.194;2023-05-14T03:05:55;85539.72;;;20.79;39.98
40948;BME280;49382;-25.924;28.194;2023-05-14T03:08:21;85544.48;;;20.26;40.47
40948;BME280;49382;-25.924;28.194;2023-05-14T03:10:46;85549.07;;;19.45;41.84
40948;BME280;49382;-25.924;28.194;2023-05-14T03:13:12;85549.29;;;20.33;40.94
40948;BME280;49382;-25.924;28.194;2023-05-14T03:15:37;85545.23;;;19.32;42.60
40948;BME280;49382;-25.924;28.194;2023-05-14T03:18:02;85542.24;;;19.26;42.11
40948;BME280;49382;-25.924;28.194;2023-05-14T03:20:28;85537.07;;;19.93;41.48
40948;BME280;49382;-25.924;28.194;2023-05-14T03:22:53;85539.56;;;20.17;41.19
40948;BME280;49382;-25.924;28.194;2023-05-14T03:25:18;85534.57;;;19.44;42.57
40948;BME280;49382;-25.924;28.194;2023-05-14T03:27:44;85526.92;;;19.96;41.47
40948;BME280;49382;-25.924;28.194;2023-05-14T03:30:10;85527.39;;;19.94;41.47
40948;BME280;49382;-25.924;28.194;2023-05-14T03:32:36;85512.20;;;20.27;41.09
40948;BME280;49382;-25.924;28.194;2023-05-14T03:35:00;85497.20;;;19.53;41.48
40948;BME280;49382;-25.924;28.194;2023-05-14T03:37:25;85483.33;;;19.17;41.92
40948;BME280;49382;-25.924;28.194;2023-05-14T03:39:50;85479.55;;;19.62;41.58
40948;BME280;49382;-25.924;28.194;2023-05-14T03:42:15;85476.07;;;19.95;41.52
40948;BME280;49382;-25.924;28.194;2023-05-14T03:44:41;85476.45;;;19.97;41.49
40948;BME280;49382;-25.924;28.194;2023-05-14T03:47:06;85474.33;;;20.29;40.63
40948;BME280;49382;-25.924;28.194;2023-05-14T03:49:32;85471.46;;;20.05;40.71
40948;BME280;49382;-25.924;28.194;2023-05-14T03:51:57;85473.21;;;20.23;40.29
40948;BME280;49382;-25.924;28.194;2023-05-14T03:54:22;85465.86;;;19.85;40.77
40948;BME280;49382;-25.924;28.194;2023-05-14T03:56:47;85456.12;;;20.26;39.82
40948;BME280;49382;-25.924;28.194;2023-05-14T03:59:13;85447.49;;;19.35;41.45
40948;BME280;49382;-25.924;28.194;2023-05-14T04:01:38;85428.44;;;20.29;40.18
40948;BME280;49382;-25.924;28.194;2023-05-14T04:04:03;85427.93;;;19.29;42.06
40948;BME280;49382;-25.924;28.194;2023-05-14T04:06:28;85440.45;;;19.69;41.99
40948;BME280;49382;-25.924;28.194;2023-05-14T04:08:54;85448.90;;;19.36;42.53
40948;BME280;49382;-25.924;28.194;2023-05-14T04:11:19;85432.71;;;19.72;41.96
40948;BME280;49382;-25.924;28.194;2023-05-14T04:13:44;85438.54;;;18.97;42.79
40948;BME280;49382;-25.924;28.194;2023-05-14T04:16:10;85426.15;;;19.47;42.15
40948;BME280;49382;-25.924;28.194;2023-05-14T04:18:35;85422.99;;;19.12;41.91
40948;BME280;49382;-25.924;28.194;2023-05-14T04:21:01;85424.77;;;18.82;42.48
40948;BME280;49382;-25.924;28.194;2023-05-14T04:23:26;85416.78;;;18.92;42.16
40948;BME280;49382;-25.924;28.194;2023-05-14T04:25:51;85416.11;;;19.16;41.68
40948;BME280;49382;-25.924;28.194;2023-05-14T04:28:17;85423.42;;;18.90;41.95
40948;BME280;49382;-25.924;28.194;2023-05-14T04:30:42;85417.49;;;19.12;41.37
40948;BME280;49382;-25.924;28.194;2023-05-14T04:33:07;85424.67;;;18.33;43.27
40948;BME280;49382;-25.924;28.194;2023-05-14T04:35:33;85431.59;;;18.21;43.37
40948;BME280;49382;-25.924;28.194;2023-05-14T04:37:58;85434.71;;;18.89;41.89
40948;BME280;49382;-25.924;28.194;2023-05-14T04:40:23;85434.94;;;18.06;43.38
40948;BME280;49382;-25.924;28.194;2023-05-14T04:42:48;85433.18;;;17.84;44.08
40948;BME280;49382;-25.924;28.194;2023-05-14T04:45:14;85437.87;;;18.26;43.58
40948;BME280;49382;-25.924;28.194;2023-05-14T04:47:39;85440.40;;;18.46;42.88
40948;BME280;49382;-25.924;28.194;2023-05-14T04:50:04;85448.30;;;18.48;42.89
40948;BME280;49382;-25.924;28.194;2023-05-14T04:52:29;85449.13;;;17.88;43.83
40948;BME280;49382;-25.924;28.194;2023-05-14T04:54:54;85452.18;;;19.07;42.25
40948;BME280;49382;-25.924;28.194;2023-05-14T04:57:19;85462.38;;;17.95;43.62
40948;BME280;49382;-25.924;28.194;2023-05-14T04:59:45;85465.88;;;18.42;42.98
40948;BME280;49382;-25.924;28.194;2023-05-14T05:02:11;85471.49;;;18.63;42.34
40948;BME280;49382;-25.924;28.194;2023-05-14T05:04:37;85472.05;;;18.31;43.90
40948;BME280;49382;-25.924;28.194;2023-05-14T05:07:01;85473.28;;;18.59;43.32
40948;BME280;49382;-25.924;28.194;2023-05-14T05:09:27;85470.20;;;18.63;43.64
40948;BME280;49382;-25.924;28.194;2023-05-14T05:11:52;85469.00;;;18.56;43.78
40948;BME280;49382;-25.924;28.194;2023-05-14T05:14:19;85466.43;;;18.87;43.20
40948;BME280;49382;-25.924;28.194;2023-05-14T05:16:43;85463.51;;;18.59;43.43
40948;BME280;49382;-25.924;28.194;2023-05-14T05:19:08;85462.02;;;18.69;42.79
40948;BME280;49382;-25.924;28.194;2023-05-14T05:21:34;85462.12;;;19.28;42.69
40948;BME280;49382;-25.924;28.194;2023-05-14T05:23:59;85462.98;;;18.80;43.46
40948;BME280;49382;-25.924;28.194;2023-05-14T05:26:25;85462.41;;;19.01;42.34
40948;BME280;49382;-25.924;28.194;2023-05-14T05:28:49;85465.43;;;18.50;43.12
40948;BME280;49382;-25.924;28.194;2023-05-14T05:31:15;85463.44;;;18.07;44.18
40948;BME280;49382;-25.924;28.194;2023-05-14T05:33:41;85464.36;;;19.02;42.77
40948;BME280;49382;-25.924;28.194;2023-05-14T05:36:07;85467.82;;;18.76;42.94
40948;BME280;49382;-25.924;28.194;2023-05-14T05:38:32;85471.99;;;18.17;43.79
40948;BME280;49382;-25.924;28.194;2023-05-14T05:40:58;85470.48;;;19.48;41.80
40948;BME280;49382;-25.924;28.194;2023-05-14T05:43:23;85474.43;;;18.85;43.52
40948;BME280;49382;-25.924;28.194;2023-05-14T05:45:48;85476.33;;;19.09;42.59
40948;BME280;49382;-25.924;28.194;2023-05-14T05:48:14;85478.20;;;19.11;42.48
40948;BME280;49382;-25.924;28.194;2023-05-14T05:50:39;85482.23;;;19.04;42.49
40948;BME280;49382;-25.924;28.194;2023-05-14T05:53:05;85483.20;;;19.27;42.34
40948;BME280;49382;-25.924;28.194;2023-05-14T05:55:30;85485.15;;;19.21;42.45
40948;BME280;49382;-25.924;28.194;2023-05-14T05:57:55;85486.50;;;19.31;42.62
40948;BME280;49382;-25.924;28.194;2023-05-14T06:00:21;85495.69;;;19.63;41.96
40948;BME280;49382;-25.924;28.194;2023-05-14T06:02:46;85500.37;;;19.50;42.17
40948;BME280;49382;-25.924;28.194;2023-05-14T06:05:12;85500.21;;;19.74;41.03
40948;BME280;49382;-25.924;28.194;2023-05-14T06:07:38;85509.79;;;19.85;41.82
40948;BME280;49382;-25.924;28.194;2023-05-14T06:10:03;85510.79;;;19.16;42.37
40948;BME280;49382;-25.924;28.194;2023-05-14T06:12:28;85518.95;;;19.81;42.78
40948;BME280;49382;-25.924;28.194;2023-05-14T06:14:54;85524.36;;;19.17;43.52
40948;BME280;49382;-25.924;28.194;2023-05-14T06:17:20;85526.95;;;18.99;43.59
40948;BME280;49382;-25.924;28.194;2023-05-14T06:19:45;85528.49;;;19.26;43.94
40948;BME280;49382;-25.924;28.194;2023-05-14T06:22:11;85527.41;;;19.32;43.85
40948;BME280;49382;-25.924;28.194;2023-05-14T06:24:35;85528.53;;;19.68;43.48
40948;BME280;49382;-25.924;28.194;2023-05-14T06:27:01;85530.02;;;20.04;43.24
40948;BME280;49382;-25.924;28.194;2023-05-14T06:29:26;85527.44;;;19.45;43.92
40948;BME280;49382;-25.924;28.194;2023-05-14T06:31:52;85538.16;;;18.85;44.40
40948;BME280;49382;-25.924;28.194;2023-05-14T06:34:19;85544.08;;;19.94;43.77
40948;BME280;49382;-25.924;28.194;2023-05-14T06:36:43;85549.60;;;19.77;44.27
40948;BME280;49382;-25.924;28.194;2023-05-14T06:39:08;85558.00;;;19.93;44.08
40948;BME280;49382;-25.924;28.194;2023-05-14T06:41:33;85558.93;;;20.21;43.30
40948;BME280;49382;-25.924;28.194;2023-05-14T06:43:59;85559.74;;;20.31;43.33
40948;BME280;49382;-25.924;28.194;2023-05-14T06:46:24;85558.37;;;20.38;42.95
40948;BME280;49382;-25.924;28.194;2023-05-14T06:48:50;85553.02;;;20.37;42.95
40948;BME280;49382;-25.924;28.194;2023-05-14T06:51:15;85554.77;;;19.18;44.49
40948;BME280;49382;-25.924;28.194;2023-05-14T06:53:40;85557.54;;;20.18;43.00
40948;BME280;49382;-25.924;28.194;2023-05-14T06:56:05;85564.08;;;19.40;44.14
40948;BME280;49382;-25.924;28.194;2023-05-14T06:58:31;85569.25;;;19.24;44.55
40948;BME280;49382;-25.924;28.194;2023-05-14T07:00:57;85576.96;;;18.24;46.35
40948;BME280;49382;-25.924;28.194;2023-05-14T07:03:22;85585.68;;;18.25;46.23
40948;BME280;49382;-25.924;28.194;2023-05-14T07:05:47;85590.76;;;18.24;46.27
40948;BME280;49382;-25.924;28.194;2023-05-14T07:08:13;85594.34;;;18.91;45.44
40948;BME280;49382;-25.924;28.194;2023-05-14T07:10:38;85601.13;;;19.14;45.34
40948;BME280;49382;-25.924;28.194;2023-05-14T07:13:03;85603.33;;;19.32;44.90
40948;BME280;49382;-25.924;28.194;2023-05-14T07:15:30;85597.72;;;19.27;45.02
40948;BME280;49382;-25.924;28.194;2023-05-14T07:17:54;85592.96;;;18.39;46.08
40948;BME280;49382;-25.924;28.194;2023-05-14T07:20:20;85593.28;;;18.41;45.85
40948;BME280;49382;-25.924;28.194;2023-05-14T07:22:45;85594.69;;;18.41;45.81
40948;BME280;49382;-25.924;28.194;2023-05-14T07:25:11;85596.95;;;18.28;46.93
40948;BME280;49382;-25.924;28.194;2023-05-14T07:27:36;85600.76;;;18.87;45.75
40948;BME280;49382;-25.924;28.194;2023-05-14T07:30:02;85603.46;;;18.33;45.66
40948;BME280;49382;-25.924;28.194;2023-05-14T07:32:27;85606.63;;;18.16;46.03
40948;BME280;49382;-25.924;28.194;2023-05-14T07:34:52;85608.54;;;18.94;44.80
40948;BME280;49382;-25.924;28.194;2023-05-14T07:37:19;85603.95;;;20.06;43.39
40948;BME280;49382;-25.924;28.194;2023-05-14T07:39:43;85600.95;;;20.01;42.71
40948;BME280;49382;-25.924;28.194;2023-05-14T07:42:09;85599.09;;;19.15;44.13
40948;BME280;49382;-25.924;28.194;2023-05-14T07:44:34;85594.51;;;18.09;45.84
40948;BME280;49382;-25.924;28.194;2023-05-14T07:46:59;85594.77;;;19.80;43.78
40948;BME280;49382;-25.924;28.194;2023-05-14T07:49:24;85592.82;;;19.58;43.53
40948;BME280;49382;-25.924;28.194;2023-05-14T07:51:50;85585.25;;;20.59;41.96
40948;BME280;49382;-25.924;28.194;2023-05-14T07:54:16;85581.24;;;20.20;42.00
40948;BME280;49382;-25.924;28.194;2023-05-14T07:56:41;85576.91;;;22.00;39.38
40948;BME280;49382;-25.924;28.194;2023-05-14T07:59:06;85577.36;;;20.06;41.35
40948;BME280;49382;-25.924;28.194;2023-05-14T08:01:32;85576.28;;;21.49;39.49
40948;BME280;49382;-25.924;28.194;2023-05-14T08:03:58;85573.64;;;21.51;38.38
40948;BME280;49382;-25.924;28.194;2023-05-14T08:06:24;85573.88;;;21.55;38.37
40948;BME280;49382;-25.924;28.194;2023-05-14T08:08:48;85576.20;;;30.21;28.25
40948;BME280;49382;-25.924;28.194;2023-05-14T08:11:13;85576.76;;;28.84;28.11
40948;BME280;49382;-25.924;28.194;2023-05-14T08:13:39;85577.43;;;25.43;31.80
40948;BME280;49382;-25.924;28.194;2023-05-14T08:16:06;85570.10;;;26.53;30.04
40948;BME280;49382;-25.924;28.194;2023-05-14T08:18:30;85570.76;;;25.16;31.13
40948;BME280;49382;-25.924;28.194;2023-05-14T08:20:56;85569.00;;;28.01;28.23
40948;BME280;49382;-25.924;28.194;2023-05-14T08:23:21;85570.06;;;34.11;22.41
40948;BME280;49382;-25.924;28.194;2023-05-14T08:25:47;85563.24;;;32.10;21.71
40948;BME280;49382;-25.924;28.194;2023-05-14T08:28:12;85570.86;;;35.52;19.46
40948;BME280;49382;-25.924;28.194;2023-05-14T08:30:38;85572.01;;;38.11;16.95
40948;BME280;49382;-25.924;28.194;2023-05-14T08:33:04;85569.64;;;36.81;17.80
40948;BME280;49382;-25.924;28.194;2023-05-14T08:35:30;85567.11;;;36.56;17.36
40948;BME280;49382;-25.924;28.194;2023-05-14T08:37:55;85564.59;;;35.48;18.52
40948;BME280;49382;-25.924;28.194;2023-05-14T08:40:21;85567.99;;;32.60;20.56
40948;BME280;49382;-25.924;28.194;2023-05-14T08:42:47;85563.62;;;32.51;21.13
40948;BME280;49382;-25.924;28.194;2023-05-14T08:45:17;85560.15;;;30.44;22.94
40948;BME280;49382;-25.924;28.194;2023-05-14T08:47:38;85573.47;;;35.06;19.37
40948;BME280;49382;-25.924;28.194;2023-05-14T08:50:06;85564.78;;;35.06;18.76
40948;BME280;49382;-25.924;28.194;2023-05-14T08:52:30;85567.02;;;38.51;16.17
40948;BME280;49382;-25.924;28.194;2023-05-14T08:54:55;85561.24;;;35.01;18.55
40948;BME280;49382;-25.924;28.194;2023-05-14T08:57:21;85557.40;;;35.92;17.46
40948;BME280;49382;-25.924;28.194;2023-05-14T08:59:46;85545.06;;;30.43;21.49
40948;BME280;49382;-25.924;28.194;2023-05-14T09:02:14;85533.75;;;27.56;25.18
40948;BME280;49382;-25.924;28.194;2023-05-14T09:04:36;85525.74;;;27.49;26.53
40948;BME280;49382;-25.924;28.194;2023-05-14T09:07:02;85518.76;;;25.80;28.55
40948;BME280;49382;-25.924;28.194;2023-05-14T09:09:27;85511.96;;;25.77;29.05
40948;BME280;49382;-25.924;28.194;2023-05-14T09:11:53;85507.66;;;24.70;29.79
40948;BME280;49382;-25.924;28.194;2023-05-14T09:14:17;85504.32;;;24.67;31.13
40948;BME280;49382;-25.924;28.194;2023-05-14T09:16:45;85500.36;;;25.52;29.95
40948;BME280;49382;-25.924;28.194;2023-05-14T09:19:09;85493.36;;;25.60;29.50
40948;BME280;49382;-25.924;28.194;2023-05-14T09:21:34;85489.78;;;24.45;30.98
40948;BME280;49382;-25.924;28.194;2023-05-14T09:24:00;85484.68;;;24.52;31.09
40948;BME280;49382;-25.924;28.194;2023-05-14T09:26:26;85480.53;;;23.30;33.14
40948;BME280;49382;-25.924;28.194;2023-05-14T09:28:53;85475.75;;;23.65;32.23
40948;BME280;49382;-25.924;28.194;2023-05-14T09:31:17;85472.71;;;23.39;33.48
40948;BME280;49382;-25.924;28.194;2023-05-14T09:33:49;85470.76;;;24.11;31.94
40948;BME280;49382;-25.924;28.194;2023-05-14T09:36:09;85458.21;;;23.31;32.55
40948;BME280;49382;-25.924;28.194;2023-05-14T09:38:34;85457.60;;;22.61;34.03
40948;BME280;49382;-25.924;28.194;2023-05-14T09:41:00;85451.62;;;22.66;34.83
40948;BME280;49382;-25.924;28.194;2023-05-14T09:43:26;85444.19;;;22.51;34.04
40948;BME280;49382;-25.924;28.194;2023-05-14T09:45:51;85441.92;;;22.41;34.56
40948;BME280;49382;-25.924;28.194;2023-05-14T09:48:17;85435.87;;;23.00;33.93
40948;BME280;49382;-25.924;28.194;2023-05-14T09:50:43;85441.85;;;22.67;33.40
40948;BME280;49382;-25.924;28.194;2023-05-14T09:53:08;85441.24;;;22.43;32.85
40948;BME280;49382;-25.924;28.194;2023-05-14T09:55:35;85437.72;;;23.49;32.02
40948;BME280;49382;-25.924;28.194;2023-05-14T09:58:00;85436.59;;;23.32;31.28
40948;BME280;49382;-25.924;28.194;2023-05-14T10:00:26;85437.27;;;23.59;31.31
40948;BME280;49382;-25.924;28.194;2023-05-14T10:02:52;85427.41;;;22.38;33.36
40948;BME280;49382;-25.924;28.194;2023-05-14T10:05:18;85424.20;;;22.55;33.48
40948;BME280;49382;-25.924;28.194;2023-05-14T10:07:46;85414.81;;;22.18;33.23
40948;BME280;49382;-25.924;28.194;2023-05-14T10:10:14;85415.96;;;22.63;32.79
40948;BME280;49382;-25.924;28.194;2023-05-14T10:12:37;85409.83;;;22.98;32.77
40948;BME280;49382;-25.924;28.194;2023-05-14T10:15:03;85414.79;;;23.73;31.90
40948;BME280;49382;-25.924;28.194;2023-05-14T10:17:30;85419.28;;;22.33;33.73
40948;BME280;49382;-25.924;28.194;2023-05-14T10:19:53;85412.51;;;22.93;33.45
40948;BME280;49382;-25.924;28.194;2023-05-14T10:22:21;85421.72;;;22.96;33.58
40948;BME280;49382;-25.924;28.194;2023-05-14T10:24:43;85416.05;;;22.37;34.13
40948;BME280;49382;-25.924;28.194;2023-05-14T10:27:09;85417.32;;;22.62;33.74
40948;BME280;49382;-25.924;28.194;2023-05-14T10:29:36;85410.70;;;22.17;34.45
40948;BME280;49382;-25.924;28.194;2023-05-14T10:32:03;85408.64;;;23.55;31.38
40948;BME280;49382;-25.924;28.194;2023-05-14T10:34:31;85413.05;;;23.08;32.37
40948;BME280;49382;-25.924;28.194;2023-05-14T10:36:52;85411.44;;;23.31;32.10
40948;BME280;49382;-25.924;28.194;2023-05-14T10:39:18;85400.59;;;21.79;33.31
40948;BME280;49382;-25.924;28.194;2023-05-14T10:41:44;85395.06;;;22.42;32.79
40948;BME280;49382;-25.924;28.194;2023-05-14T10:44:10;85391.51;;;21.44;33.05
40948;BME280;49382;-25.924;28.194;2023-05-14T10:46:35;85387.50;;;21.69;33.50
40948;BME280;49382;-25.924;28.194;2023-05-14T10:49:01;85388.01;;;22.39;31.84
40948;BME280;49382;-25.924;28.194;2023-05-14T10:51:27;85385.29;;;21.04;33.81
40948;BME280;49382;-25.924;28.194;2023-05-14T10:53:52;85377.79;;;21.10;34.00
40948;BME280;49382;-25.924;28.194;2023-05-14T10:56:19;85379.59;;;21.92;32.96
40948;BME280;49382;-25.924;28.194;2023-05-14T10:58:44;85382.47;;;22.83;31.12
40948;BME280;49382;-25.924;28.194;2023-05-14T11:01:11;85378.90;;;21.71;32.48
40948;BME280;49382;-25.924;28.194;2023-05-14T11:03:39;85381.61;;;21.87;33.10
40948;BME280;49382;-25.924;28.194;2023-05-14T11:06:03;85385.06;;;22.16;32.61
40948;BME280;49382;-25.924;28.194;2023-05-14T11:08:26;85386.29;;;22.60;32.43
40948;BME280;49382;-25.924;28.194;2023-05-14T11:10:51;85374.09;;;21.77;33.55
40948;BME280;49382;-25.924;28.194;2023-05-14T11:13:18;85377.92;;;22.83;32.07
40948;BME280;49382;-25.924;28.194;2023-05-14T11:15:42;85376.51;;;21.67;32.90
40948;BME280;49382;-25.924;28.194;2023-05-14T11:18:08;85372.00;;;21.95;32.74
40948;BME280;49382;-25.924;28.194;2023-05-14T11:20:35;85371.05;;;20.49;34.74
40948;BME280;49382;-25.924;28.194;2023-05-14T11:23:00;85367.74;;;21.45;33.75
40948;BME280;49382;-25.924;28.194;2023-05-14T11:25:25;85359.43;;;22.13;33.02
40948;BME280;49382;-25.924;28.194;2023-05-14T11:27:50;85357.94;;;21.97;33.31
40948;BME280;49382;-25.924;28.194;2023-05-14T11:30:16;85345.05;;;22.76;32.22
40948;BME280;49382;-25.924;28.194;2023-05-14T11:32:41;85342.74;;;21.35;33.40
40948;BME280;49382;-25.924;28.194;2023-05-14T11:35:06;85341.64;;;22.86;32.95
40948;BME280;49382;-25.924;28.194;2023-05-14T11:37:32;85344.96;;;22.42;32.70
40948;BME280;49382;-25.924;28.194;2023-05-14T11:39:59;85346.92;;;22.82;32.64
40948;BME280;49382;-25.924;28.194;2023-05-14T11:42:23;85341.14;;;22.62;32.53
40948;BME280;49382;-25.924;28.194;2023-05-14T11:44:49;85342.15;;;21.93;33.28
40948;BME280;49382;-25.924;28.194;2023-05-14T11:47:13;85334.63;;;22.76;32.75
40948;BME280;49382;-25.924;28.194;2023-05-14T11:49:38;85336.38;;;22.79;32.19
40948;BME280;49382;-25.924;28.194;2023-05-14T11:52:05;85341.09;;;21.72;33.54
40948;BME280;49382;-25.924;28.194;2023-05-14T11:54:30;85332.63;;;22.44;32.89
40948;BME280;49382;-25.924;28.194;2023-05-14T11:56:56;85327.19;;;21.71;33.97
40948;BME280;49382;-25.924;28.194;2023-05-14T11:59:23;85322.05;;;22.28;33.93
40948;BME280;49382;-25.924;28.194;2023-05-14T12:01:48;85308.42;;;21.85;34.26
40948;BME280;49382;-25.924;28.194;2023-05-14T12:04:13;85309.44;;;21.52;35.03
40948;BME280;49382;-25.924;28.194;2023-05-14T12:06:39;85305.03;;;21.82;34.91
40948;BME280;49382;-25.924;28.194;2023-05-14T12:09:05;85308.60;;;21.52;35.12
40948;BME280;49382;-25.924;28.194;2023-05-14T12:11:31;85306.88;;;22.89;32.93
40948;BME280;49382;-25.924;28.194;2023-05-14T12:13:55;85305.08;;;21.97;33.82
40948;BME280;49382;-25.924;28.194;2023-05-14T12:16:21;85317.97;;;22.06;33.83
40948;BME280;49382;-25.924;28.194;2023-05-14T12:18:46;85317.25;;;21.41;34.54
40948;BME280;49382;-25.924;28.194;2023-05-14T12:21:12;85312.80;;;22.61;34.37
40948;BME280;49382;-25.924;28.194;2023-05-14T12:23:38;85307.64;;;22.04;34.00
40948;BME280;49382;-25.924;28.194;2023-05-14T12:26:05;85307.92;;;23.26;33.38
40948;BME280;49382;-25.924;28.194;2023-05-14T12:28:31;85305.48;;;23.48;32.27
40948;BME280;49382;-25.924;28.194;2023-05-14T12:30:56;85301.16;;;24.05;31.18